createdAt,value
2023-09-12T00:00:37.022Z,45.56
2023-09-12T00:03:04.979Z,45.47
2023-09-12T00:05:32.629Z,45.54
2023-09-12T00:08:00.270Z,45.40
2023-09-12T00:10:27.869Z,45.18
2023-09-12T00:12:55.516Z,45.39
2023-09-12T00:15:23.465Z,45.88
2023-09-12T00:17:51.156Z,46.06
2023-09-12T00:20:18.722Z,46.05
2023-09-12T00:22:47.313Z,46.23
2023-09-12T00:25:15.170Z,46.40
2023-09-12T00:27:42.874Z,46.19
2023-09-12T00:30:11.319Z,46.22
2023-09-12T00:32:38.978Z,46.83
2023-09-12T00:35:07.228Z,46.29
2023-09-12T00:37:34.843Z,46.49
2023-09-12T00:40:02.386Z,46.52
2023-09-12T00:42:30.989Z,46.63
2023-09-12T00:44:58.642Z,47.05
2023-09-12T00:47:28.291Z,46.84
2023-09-12T00:49:57.610Z,46.92
2023-09-12T00:52:28.902Z,46.94
2023-09-12T00:54:56.771Z,47.07
2023-09-12T00:57:25.871Z,47.26
2023-09-12T00:59:55.042Z,47.18
2023-09-12T01:02:23.514Z,47.26
2023-09-12T01:04:52.117Z,47.38
2023-09-12T01:07:20.020Z,47.41
2023-09-12T01:09:47.621Z,47.43
2023-09-12T01:12:15.790Z,47.78
2023-09-12T01:14:43.615Z,47.64
2023-09-12T01:17:11.625Z,47.67
2023-09-12T01:19:39.283Z,48.06
2023-09-12T01:22:41.417Z,48.14
2023-09-12T01:25:47.024Z,48.10
2023-09-12T01:28:18.175Z,48.42
2023-09-12T01:30:49.688Z,48.46
2023-09-12T01:33:17.575Z,48.49
2023-09-12T01:35:47.441Z,48.70
2023-09-12T01:38:15.801Z,49.06
2023-09-12T01:40:52.314Z,49.08
2023-09-12T01:43:23.477Z,48.86
2023-09-12T01:45:57.355Z,48.54
2023-09-12T01:48:34.305Z,48.87
2023-09-12T01:51:04.370Z,49.07
2023-09-12T01:53:34.181Z,49.31
2023-09-12T01:56:01.894Z,49.02
2023-09-12T01:58:30.187Z,48.98
2023-09-12T02:00:58.214Z,49.18
2023-09-12T02:03:26.145Z,49.28
2023-09-12T02:05:53.854Z,49.37
2023-09-12T02:08:21.483Z,49.30
2023-09-12T02:10:49.149Z,49.31
2023-09-12T02:13:16.702Z,49.83
2023-09-12T02:15:44.345Z,49.70
2023-09-12T02:18:12.235Z,49.69
2023-09-12T02:20:42.824Z,49.70
2023-09-12T02:23:10.561Z,49.80
2023-09-12T02:25:38.864Z,49.90
2023-09-12T02:28:06.751Z,49.91
2023-09-12T02:30:34.379Z,50.09
2023-09-12T02:33:02.092Z,49.99
2023-09-12T02:35:30.070Z,50.14
2023-09-12T02:37:57.689Z,50.26
2023-09-12T02:40:26.274Z,50.07
2023-09-12T02:42:53.925Z,50.40
2023-09-12T02:45:21.578Z,50.80
2023-09-12T02:47:49.245Z,50.52
2023-09-12T02:50:17.097Z,50.84
2023-09-12T02:52:44.703Z,50.77
2023-09-12T02:55:12.347Z,51.07
2023-09-12T02:57:40.064Z,51.10
2023-09-12T03:00:10.104Z,51.21
2023-09-12T03:02:37.877Z,51.35
2023-09-12T03:05:06.234Z,51.41
2023-09-12T03:07:33.803Z,51.47
2023-09-12T03:10:01.429Z,51.62
2023-09-12T03:12:29.184Z,51.47
2023-09-12T03:14:57.865Z,51.54
2023-09-12T03:17:25.643Z,51.77
2023-09-12T03:19:53.380Z,51.69
2023-09-12T03:22:21.057Z,51.63
2023-09-12T03:24:48.955Z,51.71
2023-09-12T03:27:16.735Z,51.49
2023-09-12T03:29:48.935Z,51.92
2023-09-12T03:32:16.572Z,51.81
2023-09-12T03:34:44.380Z,51.79
2023-09-12T03:37:12.060Z,51.86
2023-09-12T03:39:40.127Z,51.96
2023-09-12T03:42:07.809Z,51.88
2023-09-12T03:44:35.525Z,52.25
2023-09-12T03:47:03.355Z,52.06
2023-09-12T03:49:31.155Z,52.14
2023-09-12T03:51:58.761Z,51.98
2023-09-12T03:54:27.399Z,51.87
2023-09-12T03:56:55.414Z,52.05
2023-09-12T03:59:23.068Z,52.02
2023-09-12T04:01:50.875Z,51.67
2023-09-12T04:04:18.613Z,51.98
2023-09-12T04:06:46.413Z,51.87
2023-09-12T04:09:14.090Z,51.67
2023-09-12T04:11:47.140Z,52.00
2023-09-12T04:14:15.984Z,51.82
2023-09-12T04:16:43.740Z,51.84
2023-09-12T04:19:11.472Z,51.59
2023-09-12T04:21:41.079Z,51.87
2023-09-12T04:24:09.194Z,51.97
2023-09-12T04:26:37.084Z,51.96
2023-09-12T04:29:04.883Z,51.93
2023-09-12T04:31:32.490Z,51.84
2023-09-12T04:34:00.131Z,51.96
2023-09-12T04:36:27.782Z,51.74
2023-09-12T04:38:55.434Z,51.59
2023-09-12T04:41:22.976Z,51.58
2023-09-12T04:43:50.568Z,51.91
2023-09-12T04:46:18.213Z,51.80
2023-09-12T04:48:46.173Z,51.86
2023-09-12T04:51:14.266Z,51.83
2023-09-12T04:53:41.857Z,51.68
2023-09-12T04:56:11.121Z,51.67
2023-09-12T04:58:39.019Z,51.48
2023-09-12T05:01:06.715Z,51.79
2023-09-12T05:03:34.629Z,51.97
2023-09-12T05:06:02.628Z,51.99
2023-09-12T05:08:30.979Z,51.83
2023-09-12T05:10:58.589Z,52.05
2023-09-12T05:13:26.260Z,52.22
2023-09-12T05:15:53.967Z,51.88
2023-09-12T05:18:21.776Z,51.92
2023-09-12T05:20:49.893Z,51.89
2023-09-12T05:23:19.829Z,52.08
2023-09-12T05:25:47.440Z,51.92
2023-09-12T05:28:17.025Z,51.74
2023-09-12T05:30:49.863Z,51.90
2023-09-12T05:33:18.014Z,51.78
2023-09-12T05:35:45.723Z,51.98
2023-09-12T05:38:13.663Z,52.19
2023-09-12T05:40:41.455Z,51.95
2023-09-12T05:43:09.094Z,51.96
2023-09-12T05:45:36.835Z,51.84
2023-09-12T05:48:05.704Z,51.95
2023-09-12T05:50:35.066Z,51.77
2023-09-12T05:53:05.245Z,51.86
2023-09-12T05:55:32.935Z,51.68
2023-09-12T05:58:00.548Z,51.77
2023-09-12T06:00:28.305Z,51.76
2023-09-12T06:02:56.239Z,51.65
2023-09-12T06:05:23.903Z,51.95
2023-09-12T06:07:51.533Z,51.72
2023-09-12T06:10:19.517Z,51.18
2023-09-12T06:12:47.155Z,51.05
2023-09-12T06:15:14.873Z,51.29
2023-09-12T06:17:42.508Z,50.86
2023-09-12T06:20:10.919Z,50.73
2023-09-12T06:22:38.484Z,50.93
2023-09-12T06:25:07.539Z,50.73
2023-09-12T06:27:35.934Z,50.54
2023-09-12T06:30:04.045Z,50.49
2023-09-12T06:32:31.684Z,50.50
2023-09-12T06:34:59.298Z,50.43
2023-09-12T06:37:26.912Z,50.21
2023-09-12T06:39:54.526Z,50.48
2023-09-12T06:42:22.141Z,50.97
2023-09-12T06:44:49.770Z,51.76
2023-09-12T06:47:17.332Z,52.19
2023-09-12T06:49:48.145Z,52.16
2023-09-12T06:52:17.746Z,50.65
2023-09-12T06:54:45.385Z,49.85
2023-09-12T06:57:12.982Z,49.70
2023-09-12T06:59:40.570Z,49.37
2023-09-12T07:02:08.519Z,49.65
2023-09-12T07:04:36.111Z,49.67
2023-09-12T07:07:05.540Z,50.72
2023-09-12T07:09:33.272Z,51.57
2023-09-12T07:12:00.910Z,51.89
2023-09-12T07:14:28.528Z,52.20
2023-09-12T07:16:56.117Z,52.46
2023-09-12T07:19:23.850Z,52.56
2023-09-12T07:21:51.533Z,52.61
2023-09-12T07:24:19.151Z,52.64
2023-09-12T07:26:47.932Z,52.71
2023-09-12T07:29:15.549Z,52.46
2023-09-12T07:31:43.336Z,52.65
2023-09-12T07:34:12.976Z,52.98
2023-09-12T07:36:40.617Z,52.73
2023-09-12T07:39:08.361Z,52.90
2023-09-12T07:41:35.930Z,52.88
2023-09-12T07:44:05.771Z,52.85
2023-09-12T07:46:33.475Z,53.12
2023-09-12T07:49:01.099Z,52.94
2023-09-12T07:51:28.676Z,52.99
2023-09-12T07:53:56.276Z,52.64
2023-09-12T07:56:23.855Z,52.46
2023-09-12T07:58:51.525Z,51.96
2023-09-12T08:01:19.169Z,51.59
2023-09-12T08:03:46.942Z,51.00
2023-09-12T08:06:14.976Z,50.76
2023-09-12T08:08:45.303Z,51.62
2023-09-12T08:11:13.501Z,51.76
2023-09-12T08:13:41.579Z,51.66
2023-09-12T08:16:09.512Z,51.79
2023-09-12T08:18:37.129Z,51.74
2023-09-12T08:21:04.718Z,51.53
2023-09-12T08:23:32.311Z,51.59
2023-09-12T08:26:00.747Z,51.63
2023-09-12T08:28:28.435Z,51.50
2023-09-12T08:30:56.078Z,51.98
2023-09-12T08:33:26.276Z,51.72
2023-09-12T08:35:54.516Z,52.05
2023-09-12T08:38:22.089Z,51.74
2023-09-12T08:40:53.168Z,51.62
2023-09-12T08:43:22.083Z,51.36
2023-09-12T08:45:50.997Z,51.06
2023-09-12T08:48:21.910Z,50.13
2023-09-12T08:50:52.568Z,50.56
2023-09-12T08:53:23.562Z,49.52
2023-09-12T08:55:53.844Z,49.54
2023-09-12T08:58:22.745Z,49.30
2023-09-12T09:00:51.254Z,50.03
2023-09-12T09:03:21.338Z,50.23
2023-09-12T09:05:50.816Z,49.59
2023-09-12T09:08:19.616Z,49.77
2023-09-12T09:11:03.271Z,49.29
2023-09-12T09:13:31.331Z,49.17
2023-09-12T09:16:25.148Z,48.68
2023-09-12T09:19:11.082Z,48.51
2023-09-12T09:21:42.081Z,48.31
2023-09-12T09:24:12.116Z,47.85
2023-09-12T09:26:51.912Z,47.81
2023-09-12T09:29:21.599Z,48.13
2023-09-12T09:31:52.023Z,47.85
2023-09-12T09:34:22.795Z,47.63
2023-09-12T09:36:58.263Z,47.01
2023-09-12T09:39:30.022Z,47.39
2023-09-12T09:41:58.599Z,47.16
2023-09-12T09:44:28.114Z,47.21
2023-09-12T09:47:01.573Z,46.74
2023-09-12T09:49:32.435Z,46.93
2023-09-12T09:52:00.059Z,46.79
2023-09-12T09:54:27.914Z,45.94
2023-09-12T09:56:58.949Z,46.01
2023-09-12T09:59:28.682Z,45.92
2023-09-12T10:02:00.115Z,45.62
2023-09-12T10:04:30.184Z,45.62
2023-09-12T10:06:59.648Z,45.69
2023-09-12T10:09:29.675Z,45.59
2023-09-12T10:11:58.971Z,45.38
2023-09-12T10:14:29.517Z,44.80
2023-09-12T10:17:06.234Z,44.52
2023-09-12T10:19:55.231Z,44.68
2023-09-12T10:22:32.347Z,44.73
2023-09-12T10:25:01.789Z,44.40
2023-09-12T10:27:31.078Z,45.02
2023-09-12T10:30:00.963Z,44.49
2023-09-12T10:32:31.318Z,43.42
2023-09-12T10:35:00.638Z,43.38
2023-09-12T10:37:33.995Z,43.14
2023-09-12T10:40:04.617Z,41.89
2023-09-12T10:42:34.470Z,42.01
2023-09-12T10:45:08.247Z,40.98
2023-09-12T10:47:38.011Z,41.75
2023-09-12T10:50:07.423Z,40.88
2023-09-12T10:52:40.661Z,41.02
2023-09-12T10:55:09.187Z,41.07
2023-09-12T10:58:08.569Z,41.86
2023-09-12T11:00:38.298Z,41.47
2023-09-12T11:03:27.443Z,42.40
2023-09-12T11:05:57.151Z,42.09
2023-09-12T11:08:25.366Z,42.05
2023-09-12T11:11:20.728Z,41.86
2023-09-12T11:14:03.945Z,41.69
2023-09-12T11:16:32.252Z,41.44
2023-09-12T11:19:24.414Z,41.61
2023-09-12T11:21:54.233Z,41.16
2023-09-12T11:24:22.582Z,41.08
2023-09-12T11:26:58.792Z,40.83
2023-09-12T11:29:37.089Z,41.20
2023-09-12T11:32:06.460Z,41.09
2023-09-12T11:34:48.441Z,41.17
2023-09-12T11:37:25.993Z,40.84
2023-09-12T11:39:55.451Z,41.05
2023-09-12T11:42:24.003Z,40.87
2023-09-12T11:44:52.909Z,40.67
2023-09-12T11:47:21.346Z,40.79
2023-09-12T11:49:50.630Z,40.55
2023-09-12T11:52:18.192Z,40.09
2023-09-12T11:54:46.490Z,40.18
2023-09-12T11:57:15.919Z,39.79
2023-09-12T11:59:47.992Z,39.16
2023-09-12T12:02:16.370Z,39.47
2023-09-12T12:04:44.364Z,39.74
2023-09-12T12:07:12.620Z,39.61
2023-09-12T12:09:40.376Z,39.57
2023-09-12T12:12:15.953Z,40.15
2023-09-12T12:14:44.674Z,40.66
2023-09-12T12:17:13.559Z,41.27
2023-09-12T12:19:46.462Z,42.20
2023-09-12T12:22:14.016Z,41.63
2023-09-12T12:24:48.339Z,43.04
2023-09-12T12:27:17.164Z,42.24
2023-09-12T12:29:45.808Z,40.91
2023-09-12T12:32:17.284Z,40.67
2023-09-12T12:35:18.225Z,40.30
2023-09-12T12:37:38.401Z,39.37
2023-09-12T12:40:07.549Z,38.87
2023-09-12T12:42:53.916Z,38.15
2023-09-12T12:45:27.360Z,37.70
2023-09-12T12:48:02.411Z,38.12
2023-09-12T12:50:30.181Z,38.48
2023-09-12T12:52:58.158Z,38.04
2023-09-12T12:55:27.629Z,38.43
2023-09-12T12:57:55.394Z,39.28
2023-09-12T13:00:24.585Z,41.12
2023-09-12T13:02:52.360Z,40.75
2023-09-12T13:05:31.780Z,43.42
2023-09-12T13:07:59.357Z,42.98
2023-09-12T13:10:27.044Z,41.65
2023-09-12T13:12:54.778Z,42.67
2023-09-12T13:15:22.456Z,42.85
2023-09-12T13:17:50.215Z,41.99
2023-09-12T13:20:17.890Z,41.41
2023-09-12T13:22:45.738Z,41.33
2023-09-12T13:25:13.421Z,39.31
2023-09-12T13:27:41.229Z,39.70
2023-09-12T13:30:09.319Z,40.16
2023-09-12T13:32:37.034Z,38.82
2023-09-12T13:35:05.139Z,38.01
2023-09-12T13:37:32.745Z,37.77
2023-09-12T13:40:00.544Z,36.04
2023-09-12T13:42:32.055Z,36.29
2023-09-12T13:44:59.713Z,36.03
2023-09-12T13:47:27.370Z,35.19
2023-09-12T13:49:55.030Z,34.99
2023-09-12T13:52:22.765Z,34.48
2023-09-12T13:54:50.624Z,34.12
2023-09-12T13:57:18.456Z,34.23
2023-09-12T13:59:47.009Z,32.63
2023-09-12T14:02:15.106Z,33.71
2023-09-12T14:04:43.630Z,32.46
2023-09-12T14:07:11.932Z,32.77
2023-09-12T14:09:41.062Z,32.59
2023-09-12T14:12:21.500Z,33.12
2023-09-12T14:15:03.951Z,32.83
2023-09-12T14:17:36.070Z,33.00
2023-09-12T14:20:05.044Z,32.86
2023-09-12T14:22:33.082Z,32.75
2023-09-12T14:25:02.852Z,32.46
2023-09-12T14:27:30.902Z,32.40
2023-09-12T14:30:00.319Z,32.48
2023-09-12T14:32:27.916Z,32.46
2023-09-12T14:34:55.597Z,32.02
2023-09-12T14:37:28.173Z,32.06
2023-09-12T14:39:57.000Z,32.04
2023-09-12T14:42:24.624Z,31.08
2023-09-12T14:44:52.180Z,30.72
2023-09-12T14:47:19.738Z,30.44
2023-09-12T14:49:51.278Z,30.61
2023-09-12T14:52:25.184Z,30.59
2023-09-12T14:54:55.419Z,31.25
2023-09-12T14:57:24.012Z,30.30
2023-09-12T14:59:52.613Z,30.08
2023-09-12T15:02:20.252Z,30.10
2023-09-12T15:04:48.024Z,30.02
2023-09-12T15:07:15.560Z,29.75
2023-09-12T15:09:43.169Z,30.27
2023-09-12T15:12:10.816Z,30.53
2023-09-12T15:14:38.529Z,30.41
2023-09-12T15:17:06.120Z,29.91
2023-09-12T15:19:33.660Z,30.29
2023-09-12T15:22:01.468Z,29.84
2023-09-12T15:24:29.472Z,29.86
2023-09-12T15:26:57.345Z,30.53
2023-09-12T15:29:25.798Z,30.74
2023-09-12T15:31:54.721Z,30.45
2023-09-12T15:34:22.338Z,30.52
2023-09-12T15:36:50.458Z,30.48
2023-09-12T15:39:18.155Z,30.03
2023-09-12T15:41:46.294Z,30.00
2023-09-12T15:44:16.433Z,29.75
2023-09-12T15:46:44.332Z,30.61
2023-09-12T15:49:12.126Z,29.81
2023-09-12T15:51:40.122Z,30.22
2023-09-12T15:54:07.776Z,29.71
2023-09-12T15:56:35.392Z,29.50
2023-09-12T15:59:04.000Z,29.85
2023-09-12T16:01:31.790Z,30.27
2023-09-12T16:03:59.744Z,29.74
2023-09-12T16:06:27.647Z,30.10
2023-09-12T16:08:55.219Z,30.04
2023-09-12T16:11:22.807Z,30.67
2023-09-12T16:13:52.875Z,30.11
2023-09-12T16:16:21.640Z,29.99
2023-09-12T16:18:49.709Z,30.02
2023-09-12T16:21:17.394Z,30.49
2023-09-12T16:23:45.257Z,30.23
2023-09-12T16:26:12.952Z,29.98
2023-09-12T16:28:40.564Z,30.37
2023-09-12T16:31:08.226Z,30.91
2023-09-12T16:33:36.142Z,30.38
2023-09-12T16:36:04.506Z,30.24
2023-09-12T16:38:34.342Z,30.33
2023-09-12T16:41:02.064Z,30.97
2023-09-12T16:43:29.691Z,30.54
2023-09-12T16:45:57.433Z,30.59
2023-09-12T16:48:25.245Z,31.03
2023-09-12T16:50:52.917Z,31.54
2023-09-12T16:53:21.478Z,31.20
2023-09-12T16:55:49.034Z,31.43
2023-09-12T16:58:16.891Z,31.80
2023-09-12T17:00:44.598Z,32.26
2023-09-12T17:03:12.438Z,31.82
2023-09-12T17:05:40.072Z,32.13
2023-09-12T17:08:07.668Z,32.27
2023-09-12T17:10:35.390Z,32.11
2023-09-12T17:13:03.096Z,32.17
2023-09-12T17:15:30.777Z,33.07
2023-09-12T17:17:58.408Z,33.54
2023-09-12T17:20:26.090Z,33.67
2023-09-12T17:22:53.748Z,34.09
2023-09-12T17:25:21.315Z,33.87
2023-09-12T17:27:49.791Z,34.37
2023-09-12T17:30:17.698Z,34.52
2023-09-12T17:32:45.383Z,35.03
2023-09-12T17:35:12.987Z,35.21
2023-09-12T17:37:40.878Z,38.44
2023-09-12T17:40:09.491Z,41.83
2023-09-12T17:42:37.191Z,43.85
2023-09-12T17:45:05.624Z,44.00
2023-09-12T17:47:33.335Z,45.25
2023-09-12T17:50:00.972Z,45.01
2023-09-12T17:52:28.560Z,44.82
2023-09-12T17:54:56.169Z,45.98
2023-09-12T17:57:23.813Z,45.82
2023-09-12T17:59:52.487Z,46.33
2023-09-12T18:02:20.046Z,47.03
2023-09-12T18:04:47.747Z,47.79
2023-09-12T18:07:15.506Z,47.07
2023-09-12T18:09:43.131Z,46.85
2023-09-12T18:12:10.761Z,46.50
2023-09-12T18:14:38.343Z,46.17
2023-09-12T18:17:05.997Z,46.30
2023-09-12T18:19:35.574Z,45.41
2023-09-12T18:22:04.896Z,45.43
2023-09-12T18:24:32.839Z,45.06
2023-09-12T18:27:00.437Z,44.78
2023-09-12T18:29:28.106Z,44.15
2023-09-12T18:31:56.389Z,43.95
2023-09-12T18:34:24.015Z,44.40
2023-09-12T18:36:53.212Z,44.61
2023-09-12T18:39:21.445Z,44.77
2023-09-12T18:41:49.031Z,43.99
2023-09-12T18:44:16.576Z,43.74
2023-09-12T18:46:44.589Z,43.30
2023-09-12T18:49:12.370Z,42.75
2023-09-12T18:51:41.131Z,42.70
2023-09-12T18:54:20.059Z,41.74
2023-09-12T18:56:49.404Z,41.43
2023-09-12T18:59:17.456Z,41.11
2023-09-12T19:01:45.083Z,41.31
2023-09-12T19:04:25.268Z,41.19
2023-09-12T19:06:53.840Z,40.68
2023-09-12T19:09:21.438Z,39.68
2023-09-12T19:11:49.960Z,39.57
2023-09-12T19:14:17.882Z,39.51
2023-09-12T19:16:46.158Z,39.40
2023-09-12T19:19:14.123Z,39.00
2023-09-12T19:21:41.835Z,38.63
2023-09-12T19:24:09.970Z,38.60
2023-09-12T19:26:37.790Z,38.53
2023-09-12T19:29:05.578Z,38.66
2023-09-12T19:31:33.224Z,38.45
2023-09-12T19:34:03.066Z,38.68
2023-09-12T19:36:31.389Z,38.42
2023-09-12T19:39:02.389Z,38.82
2023-09-12T19:41:30.489Z,39.36
2023-09-12T19:43:58.157Z,39.72
2023-09-12T19:46:25.891Z,40.13
2023-09-12T19:48:53.658Z,40.07
2023-09-12T19:51:21.344Z,39.85
2023-09-12T19:53:48.994Z,39.54
2023-09-12T19:56:16.643Z,39.53
2023-09-12T19:58:44.288Z,39.84
2023-09-12T20:01:11.975Z,39.73
2023-09-12T20:03:39.881Z,39.17
2023-09-12T20:06:07.800Z,39.34
2023-09-12T20:08:36.386Z,38.87
2023-09-12T20:11:09.420Z,39.15
2023-09-12T20:13:37.180Z,38.58
2023-09-12T20:16:05.103Z,38.32
2023-09-12T20:18:32.958Z,38.16
2023-09-12T20:21:00.589Z,37.83
2023-09-12T20:23:28.151Z,38.06
2023-09-12T20:25:56.294Z,38.06
2023-09-12T20:28:25.094Z,37.96
2023-09-12T20:30:52.745Z,38.10
2023-09-12T20:33:20.357Z,38.06
2023-09-12T20:35:47.996Z,37.75
2023-09-12T20:38:15.561Z,37.28
2023-09-12T20:40:45.511Z,36.84
2023-09-12T20:43:16.330Z,36.62
2023-09-12T20:45:45.448Z,36.52
2023-09-12T20:48:14.120Z,36.71
2023-09-12T20:50:43.530Z,36.61
2023-09-12T20:53:15.920Z,37.02
2023-09-12T20:55:43.985Z,36.95
2023-09-12T20:58:13.045Z,37.07
2023-09-12T21:00:41.627Z,37.31
2023-09-12T21:03:09.281Z,37.73
2023-09-12T21:05:37.193Z,37.58
2023-09-12T21:08:05.067Z,37.97
2023-09-12T21:10:32.658Z,37.85
2023-09-12T21:13:00.730Z,37.86
2023-09-12T21:15:28.628Z,38.20
2023-09-12T21:17:56.337Z,37.97
2023-09-12T21:20:24.074Z,38.20
2023-09-12T21:22:52.390Z,38.23
2023-09-12T21:25:20.290Z,38.78
2023-09-12T21:27:47.917Z,38.74
2023-09-12T21:30:15.632Z,39.24
2023-09-12T21:32:43.281Z,39.14
2023-09-12T21:35:16.985Z,39.73
2023-09-12T21:37:45.602Z,39.80
2023-09-12T21:40:15.183Z,40.25
2023-09-12T21:42:43.951Z,40.48
2023-09-12T21:45:16.263Z,40.84
2023-09-12T21:47:45.548Z,40.61
2023-09-12T21:50:13.981Z,40.92
2023-09-12T21:52:43.428Z,40.92
2023-09-12T21:55:11.699Z,41.37
2023-09-12T21:57:39.343Z,41.09
2023-09-12T22:00:33.967Z,41.28
2023-09-12T22:03:02.895Z,41.73
2023-09-12T22:05:30.594Z,41.71
2023-09-12T22:07:58.130Z,41.83
2023-09-12T22:10:25.734Z,41.73
2023-09-12T22:12:53.624Z,42.25
2023-09-12T22:15:21.443Z,42.40
2023-09-12T22:17:49.067Z,42.41
2023-09-12T22:20:17.257Z,42.99
2023-09-12T22:22:46.249Z,43.16
2023-09-12T22:25:14.875Z,43.12
2023-09-12T22:27:43.846Z,43.29
2023-09-12T22:30:11.953Z,43.20
2023-09-12T22:32:39.909Z,43.20
2023-09-12T22:35:08.171Z,43.64
2023-09-12T22:37:35.780Z,43.54
2023-09-12T22:40:04.680Z,43.61
2023-09-12T22:42:32.284Z,43.55
2023-09-12T22:44:59.857Z,43.73
2023-09-12T22:47:27.545Z,43.78
2023-09-12T22:49:58.491Z,44.57
2023-09-12T22:52:26.551Z,44.76
2023-09-12T22:54:54.122Z,44.90
2023-09-12T22:57:21.845Z,45.34
2023-09-12T22:59:49.433Z,45.52
2023-09-12T23:02:16.989Z,45.51
2023-09-12T23:04:45.585Z,45.63
2023-09-12T23:07:13.296Z,45.80
2023-09-12T23:09:40.927Z,46.17
2023-09-12T23:12:08.868Z,46.55
2023-09-12T23:14:36.621Z,46.84
2023-09-12T23:17:04.658Z,46.72
2023-09-12T23:19:32.352Z,47.10
2023-09-12T23:21:59.939Z,47.51
2023-09-12T23:24:27.550Z,47.71
2023-09-12T23:26:55.117Z,47.40
2023-09-12T23:29:22.705Z,47.58
2023-09-12T23:31:50.411Z,47.55
2023-09-12T23:34:18.137Z,48.13
2023-09-12T23:36:45.773Z,48.50
2023-09-12T23:39:13.362Z,48.39
2023-09-12T23:41:40.941Z,48.52
2023-09-12T23:44:08.515Z,48.53
2023-09-12T23:46:36.199Z,48.61
2023-09-12T23:49:04.102Z,48.58
2023-09-12T23:51:31.717Z,49.86
2023-09-12T23:53:59.324Z,50.25
2023-09-12T23:56:26.851Z,50.57
2023-09-12T23:58:54.418Z,50.23
